sensor_id;sensor_type;location;lat;lon;timestamp;P1;durP1;ratioP1;P2;durP2;ratioP2
71753;SDS011;59593;51.716;7.016;2023-03-11T00:00:25;3.03;;;2.33;;
71753;SDS011;59593;51.716;7.016;2023-03-11T00:02:54;3.83;;;2.50;;
71753;SDS011;59593;51.716;7.016;2023-03-11T00:05:25;4.47;;;2.60;;
71753;SDS011;59593;51.716;7.016;2023-03-11T00:07:52;4.10;;;2.50;;
71753;SDS011;59593;51.716;7.016;2023-03-11T00:10:20;4.87;;;2.57;;
71753;SDS011;59593;51.716;7.016;2023-03-11T00:12:47;3.20;;;2.50;;
71753;SDS011;59593;51.716;7.016;2023-03-11T00:15:13;3.83;;;2.60;;
71753;SDS011;59593;51.716;7.016;2023-03-11T00:17:39;3.37;;;2.53;;
71753;SDS011;59593;51.716;7.016;2023-03-11T00:20:05;6.50;;;2.80;;
71753;SDS011;59593;51.716;7.016;2023-03-11T00:22:32;3.37;;;2.47;;
71753;SDS011;59593;51.716;7.016;2023-03-11T00:24:58;4.10;;;2.73;;
71753;SDS011;59593;51.716;7.016;2023-03-11T00:27:24;3.43;;;2.80;;
71753;SDS011;59593;51.716;7.016;2023-03-11T00:29:50;4.97;;;3.20;;
71753;SDS011;59593;51.716;7.016;2023-03-11T00:32:18;4.67;;;2.90;;
71753;SDS011;59593;51.716;7.016;2023-03-11T00:34:44;4.50;;;3.07;;
71753;SDS011;59593;51.716;7.016;2023-03-11T00:37:09;3.67;;;2.50;;
71753;SDS011;59593;51.716;7.016;2023-03-11T00:39:35;4.40;;;2.70;;
71753;SDS011;59593;51.716;7.016;2023-03-11T00:42:01;6.47;;;2.63;;
71753;SDS011;59593;51.716;7.016;2023-03-11T00:44:27;3.90;;;2.30;;
71753;SDS011;59593;51.716;7.016;2023-03-11T00:46:53;3.80;;;2.20;;
71753;SDS011;59593;51.716;7.016;2023-03-11T00:49:19;3.30;;;2.27;;
71753;SDS011;59593;51.716;7.016;2023-03-11T00:51:44;4.27;;;2.43;;
71753;SDS011;59593;51.716;7.016;2023-03-11T00:54:10;3.70;;;2.07;;
71753;SDS011;59593;51.716;7.016;2023-03-11T00:56:38;3.30;;;2.10;;
71753;SDS011;59593;51.716;7.016;2023-03-11T00:59:05;3.53;;;2.10;;
71753;SDS011;59593;51.716;7.016;2023-03-11T01:01:31;3.13;;;1.70;;
71753;SDS011;59593;51.716;7.016;2023-03-11T01:03:56;14.57;;;6.17;;
71753;SDS011;59593;51.716;7.016;2023-03-11T01:06:22;9.20;;;4.20;;
71753;SDS011;59593;51.716;7.016;2023-03-11T01:08:48;6.43;;;2.53;;
71753;SDS011;59593;51.716;7.016;2023-03-11T01:11:14;3.07;;;1.63;;
71753;SDS011;59593;51.716;7.016;2023-03-11T01:13:40;4.10;;;2.07;;
71753;SDS011;59593;51.716;7.016;2023-03-11T01:16:06;3.00;;;1.97;;
71753;SDS011;59593;51.716;7.016;2023-03-11T01:18:33;2.57;;;1.80;;
71753;SDS011;59593;51.716;7.016;2023-03-11T01:20:59;4.07;;;2.00;;
71753;SDS011;59593;51.716;7.016;2023-03-11T01:23:25;4.70;;;2.10;;
71753;SDS011;59593;51.716;7.016;2023-03-11T01:25:52;4.63;;;1.87;;
71753;SDS011;59593;51.716;7.016;2023-03-11T01:28:17;2.23;;;1.93;;
71753;SDS011;59593;51.716;7.016;2023-03-11T01:30:43;2.23;;;1.90;;
71753;SDS011;59593;51.716;7.016;2023-03-11T01:33:12;4.60;;;3.17;;
71753;SDS011;59593;51.716;7.016;2023-03-11T01:35:41;6.67;;;3.80;;
71753;SDS011;59593;51.716;7.016;2023-03-11T01:38:07;6.00;;;2.73;;
71753;SDS011;59593;51.716;7.016;2023-03-11T01:40:35;3.77;;;2.63;;
71753;SDS011;59593;51.716;7.016;2023-03-11T01:43:03;4.60;;;2.50;;
71753;SDS011;59593;51.716;7.016;2023-03-11T01:48:26;3.40;;;1.60;;
71753;SDS011;59593;51.716;7.016;2023-03-11T01:50:52;5.83;;;1.90;;
71753;SDS011;59593;51.716;7.016;2023-03-11T01:53:20;2.93;;;1.47;;
71753;SDS011;59593;51.716;7.016;2023-03-11T01:55:46;5.93;;;2.63;;
71753;SDS011;59593;51.716;7.016;2023-03-11T01:58:13;14.80;;;6.30;;
71753;SDS011;59593;51.716;7.016;2023-03-11T02:00:42;10.93;;;4.00;;
71753;SDS011;59593;51.716;7.016;2023-03-11T02:03:10;5.70;;;2.03;;
71753;SDS011;59593;51.716;7.016;2023-03-11T02:05:41;6.80;;;2.20;;
71753;SDS011;59593;51.716;7.016;2023-03-11T02:08:06;3.97;;;1.80;;
71753;SDS011;59593;51.716;7.016;2023-03-11T02:10:32;4.00;;;1.57;;
71753;SDS011;59593;51.716;7.016;2023-03-11T02:12:58;2.87;;;1.57;;
71753;SDS011;59593;51.716;7.016;2023-03-11T02:15:26;5.83;;;1.63;;
71753;SDS011;59593;51.716;7.016;2023-03-11T02:17:52;6.43;;;1.87;;
71753;SDS011;59593;51.716;7.016;2023-03-11T02:20:26;5.07;;;2.00;;
71753;SDS011;59593;51.716;7.016;2023-03-11T02:23:00;6.10;;;2.10;;
71753;SDS011;59593;51.716;7.016;2023-03-11T02:25:47;8.00;;;2.60;;
71753;SDS011;59593;51.716;7.016;2023-03-11T02:28:20;7.00;;;2.77;;
71753;SDS011;59593;51.716;7.016;2023-03-11T02:30:46;7.83;;;2.60;;
71753;SDS011;59593;51.716;7.016;2023-03-11T02:33:13;9.37;;;2.40;;
71753;SDS011;59593;51.716;7.016;2023-03-11T02:35:40;4.37;;;1.80;;
71753;SDS011;59593;51.716;7.016;2023-03-11T02:38:06;6.00;;;2.10;;
71753;SDS011;59593;51.716;7.016;2023-03-11T02:40:51;7.30;;;1.90;;
71753;SDS011;59593;51.716;7.016;2023-03-11T02:43:22;7.13;;;2.40;;
71753;SDS011;59593;51.716;7.016;2023-03-11T02:45:50;12.67;;;3.97;;
71753;SDS011;59593;51.716;7.016;2023-03-11T02:48:16;8.00;;;3.37;;
71753;SDS011;59593;51.716;7.016;2023-03-11T02:50:43;10.97;;;4.00;;
71753;SDS011;59593;51.716;7.016;2023-03-11T02:53:10;8.47;;;3.30;;
71753;SDS011;59593;51.716;7.016;2023-03-11T02:55:36;6.63;;;2.60;;
71753;SDS011;59593;51.716;7.016;2023-03-11T02:58:02;7.60;;;2.87;;
71753;SDS011;59593;51.716;7.016;2023-03-11T03:00:27;6.30;;;2.77;;
71753;SDS011;59593;51.716;7.016;2023-03-11T03:02:53;8.30;;;2.80;;
71753;SDS011;59593;51.716;7.016;2023-03-11T03:05:19;6.60;;;2.80;;
71753;SDS011;59593;51.716;7.016;2023-03-11T03:07:46;10.47;;;2.30;;
71753;SDS011;59593;51.716;7.016;2023-03-11T03:10:13;5.60;;;2.50;;
71753;SDS011;59593;51.716;7.016;2023-03-11T03:12:39;7.17;;;2.80;;
71753;SDS011;59593;51.716;7.016;2023-03-11T03:15:05;5.30;;;3.23;;
71753;SDS011;59593;51.716;7.016;2023-03-11T03:17:32;6.57;;;2.97;;
71753;SDS011;59593;51.716;7.016;2023-03-11T03:19:57;9.63;;;3.17;;
71753;SDS011;59593;51.716;7.016;2023-03-11T03:22:23;9.20;;;2.50;;
71753;SDS011;59593;51.716;7.016;2023-03-11T03:24:53;6.47;;;2.27;;
71753;SDS011;59593;51.716;7.016;2023-03-11T03:27:19;8.87;;;2.40;;
71753;SDS011;59593;51.716;7.016;2023-03-11T03:29:45;8.27;;;3.00;;
71753;SDS011;59593;51.716;7.016;2023-03-11T03:32:10;4.03;;;2.07;;
71753;SDS011;59593;51.716;7.016;2023-03-11T03:34:36;11.37;;;4.10;;
71753;SDS011;59593;51.716;7.016;2023-03-11T03:37:01;11.47;;;3.50;;
71753;SDS011;59593;51.716;7.016;2023-03-11T03:39:27;7.20;;;2.87;;
71753;SDS011;59593;51.716;7.016;2023-03-11T03:41:53;9.33;;;2.40;;
71753;SDS011;59593;51.716;7.016;2023-03-11T03:44:18;9.77;;;2.50;;
71753;SDS011;59593;51.716;7.016;2023-03-11T03:46:44;7.27;;;2.73;;
71753;SDS011;59593;51.716;7.016;2023-03-11T03:49:09;6.93;;;2.33;;
71753;SDS011;59593;51.716;7.016;2023-03-11T03:51:35;7.30;;;2.30;;
71753;SDS011;59593;51.716;7.016;2023-03-11T03:54:01;7.90;;;2.37;;
71753;SDS011;59593;51.716;7.016;2023-03-11T03:56:26;8.17;;;2.27;;
71753;SDS011;59593;51.716;7.016;2023-03-11T03:58:52;5.17;;;2.37;;
71753;SDS011;59593;51.716;7.016;2023-03-11T04:01:18;5.70;;;2.57;;
71753;SDS011;59593;51.716;7.016;2023-03-11T04:03:43;7.30;;;2.57;;
71753;SDS011;59593;51.716;7.016;2023-03-11T04:08:42;8.70;;;5.13;;
71753;SDS011;59593;51.716;7.016;2023-03-11T04:11:08;9.20;;;4.90;;
71753;SDS011;59593;51.716;7.016;2023-03-11T04:13:34;9.77;;;3.20;;
71753;SDS011;59593;51.716;7.016;2023-03-11T04:16:01;9.10;;;2.40;;
71753;SDS011;59593;51.716;7.016;2023-03-11T04:18:29;6.00;;;2.30;;
71753;SDS011;59593;51.716;7.016;2023-03-11T04:20:54;8.03;;;2.60;;
71753;SDS011;59593;51.716;7.016;2023-03-11T04:23:20;7.20;;;2.13;;
71753;SDS011;59593;51.716;7.016;2023-03-11T04:25:45;8.13;;;2.27;;
71753;SDS011;59593;51.716;7.016;2023-03-11T04:28:11;10.03;;;2.10;;
71753;SDS011;59593;51.716;7.016;2023-03-11T04:30:38;10.20;;;3.60;;
71753;SDS011;59593;51.716;7.016;2023-03-11T04:33:03;7.53;;;3.00;;
71753;SDS011;59593;51.716;7.016;2023-03-11T04:35:29;9.50;;;2.80;;
71753;SDS011;59593;51.716;7.016;2023-03-11T04:37:54;7.43;;;2.63;;
71753;SDS011;59593;51.716;7.016;2023-03-11T04:40:20;8.23;;;2.70;;
71753;SDS011;59593;51.716;7.016;2023-03-11T04:42:46;5.63;;;2.50;;
71753;SDS011;59593;51.716;7.016;2023-03-11T04:45:12;6.50;;;2.73;;
71753;SDS011;59593;51.716;7.016;2023-03-11T04:47:38;12.73;;;2.93;;
71753;SDS011;59593;51.716;7.016;2023-03-11T04:50:03;7.60;;;2.47;;
71753;SDS011;59593;51.716;7.016;2023-03-11T04:52:29;8.77;;;2.80;;
71753;SDS011;59593;51.716;7.016;2023-03-11T04:54:55;5.07;;;2.90;;
71753;SDS011;59593;51.716;7.016;2023-03-11T04:57:20;4.77;;;2.63;;
71753;SDS011;59593;51.716;7.016;2023-03-11T04:59:46;7.30;;;3.20;;
71753;SDS011;59593;51.716;7.016;2023-03-11T05:02:12;7.60;;;3.23;;
71753;SDS011;59593;51.716;7.016;2023-03-11T05:04:37;8.00;;;2.80;;
71753;SDS011;59593;51.716;7.016;2023-03-11T05:07:03;7.90;;;1.97;;
71753;SDS011;59593;51.716;7.016;2023-03-11T05:09:29;6.67;;;2.27;;
71753;SDS011;59593;51.716;7.016;2023-03-11T05:11:54;10.27;;;2.47;;
71753;SDS011;59593;51.716;7.016;2023-03-11T05:14:20;6.03;;;2.17;;
71753;SDS011;59593;51.716;7.016;2023-03-11T05:16:45;6.83;;;2.23;;
71753;SDS011;59593;51.716;7.016;2023-03-11T05:19:11;8.83;;;1.97;;
71753;SDS011;59593;51.716;7.016;2023-03-11T05:21:55;9.80;;;2.37;;
71753;SDS011;59593;51.716;7.016;2023-03-11T05:24:21;8.73;;;2.60;;
71753;SDS011;59593;51.716;7.016;2023-03-11T05:26:47;7.60;;;2.27;;
71753;SDS011;59593;51.716;7.016;2023-03-11T05:29:13;6.30;;;2.40;;
71753;SDS011;59593;51.716;7.016;2023-03-11T05:31:38;7.70;;;3.30;;
71753;SDS011;59593;51.716;7.016;2023-03-11T05:34:04;5.10;;;2.40;;
71753;SDS011;59593;51.716;7.016;2023-03-11T05:36:30;6.93;;;2.10;;
71753;SDS011;59593;51.716;7.016;2023-03-11T05:38:56;5.07;;;2.30;;
71753;SDS011;59593;51.716;7.016;2023-03-11T05:41:21;5.83;;;3.00;;
71753;SDS011;59593;51.716;7.016;2023-03-11T05:43:47;6.10;;;3.20;;
71753;SDS011;59593;51.716;7.016;2023-03-11T05:46:12;10.27;;;3.20;;
71753;SDS011;59593;51.716;7.016;2023-03-11T05:48:38;11.27;;;3.03;;
71753;SDS011;59593;51.716;7.016;2023-03-11T05:51:07;6.40;;;2.80;;
71753;SDS011;59593;51.716;7.016;2023-03-11T05:53:34;8.50;;;2.67;;
71753;SDS011;59593;51.716;7.016;2023-03-11T05:56:00;8.60;;;2.70;;
71753;SDS011;59593;51.716;7.016;2023-03-11T05:58:26;7.83;;;3.63;;
71753;SDS011;59593;51.716;7.016;2023-03-11T06:00:53;11.43;;;4.30;;
71753;SDS011;59593;51.716;7.016;2023-03-11T06:03:23;9.07;;;3.20;;
71753;SDS011;59593;51.716;7.016;2023-03-11T06:05:49;8.27;;;4.03;;
71753;SDS011;59593;51.716;7.016;2023-03-11T06:08:15;7.20;;;2.80;;
71753;SDS011;59593;51.716;7.016;2023-03-11T06:10:41;7.87;;;2.73;;
71753;SDS011;59593;51.716;7.016;2023-03-11T06:13:07;9.03;;;3.53;;
71753;SDS011;59593;51.716;7.016;2023-03-11T06:15:34;8.50;;;2.90;;
71753;SDS011;59593;51.716;7.016;2023-03-11T06:18:01;7.73;;;2.63;;
71753;SDS011;59593;51.716;7.016;2023-03-11T06:20:27;8.93;;;2.80;;
71753;SDS011;59593;51.716;7.016;2023-03-11T06:22:53;6.63;;;2.97;;
71753;SDS011;59593;51.716;7.016;2023-03-11T06:25:18;11.30;;;3.00;;
71753;SDS011;59593;51.716;7.016;2023-03-11T06:27:47;9.10;;;3.40;;
71753;SDS011;59593;51.716;7.016;2023-03-11T06:30:15;6.87;;;4.00;;
71753;SDS011;59593;51.716;7.016;2023-03-11T06:32:45;10.30;;;4.13;;
71753;SDS011;59593;51.716;7.016;2023-03-11T06:35:11;9.00;;;3.87;;
71753;SDS011;59593;51.716;7.016;2023-03-11T06:37:37;8.00;;;2.83;;
71753;SDS011;59593;51.716;7.016;2023-03-11T06:40:03;5.60;;;2.47;;
71753;SDS011;59593;51.716;7.016;2023-03-11T06:42:31;6.40;;;2.40;;
71753;SDS011;59593;51.716;7.016;2023-03-11T06:44:57;6.83;;;2.33;;
71753;SDS011;59593;51.716;7.016;2023-03-11T06:47:22;13.27;;;4.40;;
71753;SDS011;59593;51.716;7.016;2023-03-11T06:49:49;6.77;;;3.93;;
71753;SDS011;59593;51.716;7.016;2023-03-11T06:52:15;5.17;;;2.97;;
71753;SDS011;59593;51.716;7.016;2023-03-11T06:54:40;7.73;;;3.70;;
71753;SDS011;59593;51.716;7.016;2023-03-11T06:57:07;6.87;;;2.90;;
71753;SDS011;59593;51.716;7.016;2023-03-11T06:59:33;5.77;;;2.90;;
71753;SDS011;59593;51.716;7.016;2023-03-11T07:01:59;6.87;;;2.73;;
71753;SDS011;59593;51.716;7.016;2023-03-11T07:04:25;7.37;;;2.70;;
71753;SDS011;59593;51.716;7.016;2023-03-11T07:06:51;5.77;;;2.40;;
71753;SDS011;59593;51.716;7.016;2023-03-11T07:09:16;8.07;;;2.47;;
71753;SDS011;59593;51.716;7.016;2023-03-11T07:11:42;7.90;;;3.30;;
71753;SDS011;59593;51.716;7.016;2023-03-11T07:14:08;10.13;;;3.47;;
71753;SDS011;59593;51.716;7.016;2023-03-11T07:16:33;11.03;;;5.03;;
71753;SDS011;59593;51.716;7.016;2023-03-11T07:18:59;15.13;;;5.10;;
71753;SDS011;59593;51.716;7.016;2023-03-11T07:21:27;10.03;;;3.20;;
71753;SDS011;59593;51.716;7.016;2023-03-11T07:23:54;9.27;;;4.40;;
71753;SDS011;59593;51.716;7.016;2023-03-11T07:26:22;9.77;;;4.20;;
71753;SDS011;59593;51.716;7.016;2023-03-11T07:28:48;12.10;;;5.93;;
71753;SDS011;59593;51.716;7.016;2023-03-11T07:31:21;9.47;;;4.80;;
71753;SDS011;59593;51.716;7.016;2023-03-11T07:33:51;12.20;;;6.70;;
71753;SDS011;59593;51.716;7.016;2023-03-11T07:36:19;8.23;;;4.17;;
71753;SDS011;59593;51.716;7.016;2023-03-11T07:38:46;12.23;;;4.03;;
71753;SDS011;59593;51.716;7.016;2023-03-11T07:41:12;10.40;;;3.73;;
71753;SDS011;59593;51.716;7.016;2023-03-11T07:43:39;8.63;;;3.90;;
71753;SDS011;59593;51.716;7.016;2023-03-11T07:46:07;10.30;;;3.47;;
71753;SDS011;59593;51.716;7.016;2023-03-11T07:48:36;9.20;;;4.30;;
71753;SDS011;59593;51.716;7.016;2023-03-11T07:51:04;6.53;;;3.40;;
71753;SDS011;59593;51.716;7.016;2023-03-11T07:53:41;4.70;;;2.87;;
71753;SDS011;59593;51.716;7.016;2023-03-11T07:56:08;10.00;;;3.50;;
71753;SDS011;59593;51.716;7.016;2023-03-11T07:58:35;9.03;;;3.70;;
71753;SDS011;59593;51.716;7.016;2023-03-11T08:01:05;7.10;;;3.37;;
71753;SDS011;59593;51.716;7.016;2023-03-11T08:03:35;7.20;;;2.40;;
71753;SDS011;59593;51.716;7.016;2023-03-11T08:06:02;7.80;;;3.37;;
71753;SDS011;59593;51.716;7.016;2023-03-11T08:08:35;6.93;;;3.40;;
71753;SDS011;59593;51.716;7.016;2023-03-11T08:11:04;6.80;;;2.47;;
71753;SDS011;59593;51.716;7.016;2023-03-11T08:13:31;5.37;;;2.83;;
71753;SDS011;59593;51.716;7.016;2023-03-11T08:15:56;7.60;;;2.20;;
71753;SDS011;59593;51.716;7.016;2023-03-11T08:18:22;7.23;;;3.10;;
71753;SDS011;59593;51.716;7.016;2023-03-11T08:20:48;6.13;;;3.27;;
71753;SDS011;59593;51.716;7.016;2023-03-11T08:23:14;6.00;;;2.67;;
71753;SDS011;59593;51.716;7.016;2023-03-11T08:25:39;6.50;;;2.17;;
71753;SDS011;59593;51.716;7.016;2023-03-11T08:28:05;6.33;;;1.90;;
71753;SDS011;59593;51.716;7.016;2023-03-11T08:30:32;7.70;;;2.10;;
71753;SDS011;59593;51.716;7.016;2023-03-11T08:32:58;7.50;;;2.30;;
71753;SDS011;59593;51.716;7.016;2023-03-11T08:35:23;7.60;;;2.07;;
71753;SDS011;59593;51.716;7.016;2023-03-11T08:37:50;8.47;;;2.00;;
71753;SDS011;59593;51.716;7.016;2023-03-11T08:40:16;3.83;;;1.87;;
71753;SDS011;59593;51.716;7.016;2023-03-11T08:42:42;6.93;;;2.00;;
71753;SDS011;59593;51.716;7.016;2023-03-11T08:45:08;6.23;;;1.53;;
71753;SDS011;59593;51.716;7.016;2023-03-11T08:47:35;5.57;;;1.80;;
71753;SDS011;59593;51.716;7.016;2023-03-11T08:50:05;5.03;;;2.00;;
71753;SDS011;59593;51.716;7.016;2023-03-11T08:52:37;4.60;;;1.80;;
71753;SDS011;59593;51.716;7.016;2023-03-11T08:55:03;3.97;;;1.50;;
71753;SDS011;59593;51.716;7.016;2023-03-11T08:57:29;7.87;;;1.83;;
71753;SDS011;59593;51.716;7.016;2023-03-11T08:59:55;4.93;;;1.57;;
71753;SDS011;59593;51.716;7.016;2023-03-11T09:02:22;5.33;;;1.77;;
71753;SDS011;59593;51.716;7.016;2023-03-11T09:04:49;3.80;;;1.50;;
71753;SDS011;59593;51.716;7.016;2023-03-11T09:07:15;2.87;;;1.37;;
71753;SDS011;59593;51.716;7.016;2023-03-11T09:09:41;3.53;;;1.43;;
71753;SDS011;59593;51.716;7.016;2023-03-11T09:12:07;4.77;;;1.60;;
71753;SDS011;59593;51.716;7.016;2023-03-11T09:14:33;6.60;;;1.60;;
71753;SDS011;59593;51.716;7.016;2023-03-11T09:17:01;4.10;;;1.40;;
71753;SDS011;59593;51.716;7.016;2023-03-11T09:19:27;5.07;;;1.50;;
71753;SDS011;59593;51.716;7.016;2023-03-11T09:21:53;6.93;;;1.80;;
71753;SDS011;59593;51.716;7.016;2023-03-11T09:24:18;4.53;;;1.10;;
71753;SDS011;59593;51.716;7.016;2023-03-11T09:26:44;3.47;;;1.90;;
71753;SDS011;59593;51.716;7.016;2023-03-11T09:29:09;8.07;;;1.70;;
71753;SDS011;59593;51.716;7.016;2023-03-11T09:31:35;7.80;;;1.40;;
71753;SDS011;59593;51.716;7.016;2023-03-11T09:34:02;3.67;;;1.50;;
71753;SDS011;59593;51.716;7.016;2023-03-11T09:36:28;5.47;;;1.53;;
71753;SDS011;59593;51.716;7.016;2023-03-11T09:38:53;4.33;;;1.30;;
71753;SDS011;59593;51.716;7.016;2023-03-11T09:41:25;5.93;;;1.33;;
71753;SDS011;59593;51.716;7.016;2023-03-11T09:44:17;4.53;;;1.10;;
71753;SDS011;59593;51.716;7.016;2023-03-11T09:49:44;5.87;;;1.17;;
71753;SDS011;59593;51.716;7.016;2023-03-11T09:55:00;6.30;;;1.23;;
71753;SDS011;59593;51.716;7.016;2023-03-11T09:57:32;7.43;;;1.23;;
71753;SDS011;59593;51.716;7.016;2023-03-11T10:00:02;3.67;;;1.10;;
71753;SDS011;59593;51.716;7.016;2023-03-11T10:02:30;4.67;;;1.40;;
71753;SDS011;59593;51.716;7.016;2023-03-11T10:05:05;7.40;;;1.73;;
71753;SDS011;59593;51.716;7.016;2023-03-11T10:07:39;5.17;;;1.30;;
71753;SDS011;59593;51.716;7.016;2023-03-11T10:10:06;5.57;;;1.00;;
71753;SDS011;59593;51.716;7.016;2023-03-11T10:18:22;5.07;;;1.30;;
71753;SDS011;59593;51.716;7.016;2023-03-11T10:21:23;7.13;;;1.70;;
71753;SDS011;59593;51.716;7.016;2023-03-11T10:24:00;5.80;;;1.30;;
71753;SDS011;59593;51.716;7.016;2023-03-11T10:26:41;6.63;;;1.27;;
71753;SDS011;59593;51.716;7.016;2023-03-11T10:29:26;5.17;;;2.07;;
71753;SDS011;59593;51.716;7.016;2023-03-11T10:32:12;4.07;;;1.20;;
71753;SDS011;59593;51.716;7.016;2023-03-11T10:34:45;4.33;;;1.20;;
71753;SDS011;59593;51.716;7.016;2023-03-11T10:37:38;3.03;;;1.20;;
71753;SDS011;59593;51.716;7.016;2023-03-11T10:42:55;1.80;;;0.93;;
71753;SDS011;59593;51.716;7.016;2023-03-11T10:45:26;3.27;;;0.87;;
71753;SDS011;59593;51.716;7.016;2023-03-11T10:47:57;5.70;;;1.53;;
71753;SDS011;59593;51.716;7.016;2023-03-11T10:50:22;6.60;;;1.33;;
71753;SDS011;59593;51.716;7.016;2023-03-11T10:53:08;6.30;;;1.13;;
71753;SDS011;59593;51.716;7.016;2023-03-11T10:55:43;4.50;;;1.00;;
71753;SDS011;59593;51.716;7.016;2023-03-11T10:58:16;3.50;;;0.80;;
71753;SDS011;59593;51.716;7.016;2023-03-11T11:00:44;3.70;;;1.10;;
71753;SDS011;59593;51.716;7.016;2023-03-11T11:03:27;2.53;;;0.60;;
71753;SDS011;59593;51.716;7.016;2023-03-11T11:05:58;3.20;;;0.90;;
71753;SDS011;59593;51.716;7.016;2023-03-11T11:08:31;5.10;;;1.00;;
71753;SDS011;59593;51.716;7.016;2023-03-11T11:11:02;4.63;;;1.10;;
71753;SDS011;59593;51.716;7.016;2023-03-11T11:13:32;3.83;;;1.07;;
71753;SDS011;59593;51.716;7.016;2023-03-11T11:16:19;4.83;;;1.20;;
71753;SDS011;59593;51.716;7.016;2023-03-11T11:18:49;2.37;;;0.80;;
71753;SDS011;59593;51.716;7.016;2023-03-11T11:24:03;2.40;;;0.93;;
71753;SDS011;59593;51.716;7.016;2023-03-11T11:26:40;3.77;;;1.20;;
71753;SDS011;59593;51.716;7.016;2023-03-11T11:31:34;3.10;;;1.50;;
71753;SDS011;59593;51.716;7.016;2023-03-11T11:34:01;5.17;;;2.03;;
71753;SDS011;59593;51.716;7.016;2023-03-11T11:36:28;4.77;;;2.43;;
71753;SDS011;59593;51.716;7.016;2023-03-11T11:38:56;3.23;;;1.00;;
71753;SDS011;59593;51.716;7.016;2023-03-11T11:41:24;4.13;;;1.00;;
71753;SDS011;59593;51.716;7.016;2023-03-11T11:43:53;4.63;;;0.90;;
71753;SDS011;59593;51.716;7.016;2023-03-11T11:46:26;3.17;;;1.00;;
71753;SDS011;59593;51.716;7.016;2023-03-11T11:51:37;3.73;;;0.90;;
71753;SDS011;59593;51.716;7.016;2023-03-11T11:56:41;3.23;;;1.20;;
71753;SDS011;59593;51.716;7.016;2023-03-11T11:59:12;6.90;;;2.10;;
71753;SDS011;59593;51.716;7.016;2023-03-11T12:12:31;5.23;;;0.90;;
71753;SDS011;59593;51.716;7.016;2023-03-11T12:15:15;4.10;;;0.90;;
71753;SDS011;59593;51.716;7.016;2023-03-11T12:17:51;3.77;;;0.93;;
71753;SDS011;59593;51.716;7.016;2023-03-11T12:20:32;4.37;;;1.07;;
71753;SDS011;59593;51.716;7.016;2023-03-11T12:25:41;1.77;;;0.87;;
71753;SDS011;59593;51.716;7.016;2023-03-11T12:31:13;4.53;;;0.83;;
71753;SDS011;59593;51.716;7.016;2023-03-11T12:33:45;2.93;;;0.60;;
71753;SDS011;59593;51.716;7.016;2023-03-11T12:36:33;6.73;;;1.10;;
71753;SDS011;59593;51.716;7.016;2023-03-11T12:39:05;3.70;;;1.27;;
71753;SDS011;59593;51.716;7.016;2023-03-11T12:41:45;3.17;;;1.30;;
71753;SDS011;59593;51.716;7.016;2023-03-11T12:49:25;4.93;;;1.30;;
71753;SDS011;59593;51.716;7.016;2023-03-11T12:52:15;2.97;;;1.10;;
71753;SDS011;59593;51.716;7.016;2023-03-11T13:00:11;2.33;;;1.00;;
71753;SDS011;59593;51.716;7.016;2023-03-11T13:08:02;2.30;;;0.90;;
71753;SDS011;59593;51.716;7.016;2023-03-11T13:10:40;3.00;;;1.00;;
71753;SDS011;59593;51.716;7.016;2023-03-11T13:13:21;2.87;;;1.00;;
71753;SDS011;59593;51.716;7.016;2023-03-11T13:18:36;6.10;;;1.00;;
71753;SDS011;59593;51.716;7.016;2023-03-11T13:21:03;2.00;;;0.90;;
71753;SDS011;59593;51.716;7.016;2023-03-11T13:23:33;1.63;;;0.80;;
71753;SDS011;59593;51.716;7.016;2023-03-11T13:41:26;3.90;;;0.90;;
71753;SDS011;59593;51.716;7.016;2023-03-11T13:43:59;4.07;;;1.10;;
71753;SDS011;59593;51.716;7.016;2023-03-11T13:46:37;2.67;;;1.00;;
71753;SDS011;59593;51.716;7.016;2023-03-11T13:49:08;2.70;;;0.90;;
71753;SDS011;59593;51.716;7.016;2023-03-11T13:51:45;1.97;;;1.00;;
71753;SDS011;59593;51.716;7.016;2023-03-11T13:56:44;5.73;;;1.27;;
71753;SDS011;59593;51.716;7.016;2023-03-11T13:59:16;2.23;;;1.17;;
71753;SDS011;59593;51.716;7.016;2023-03-11T14:01:53;2.63;;;1.23;;
71753;SDS011;59593;51.716;7.016;2023-03-11T14:04:26;3.23;;;1.23;;
71753;SDS011;59593;51.716;7.016;2023-03-11T14:06:54;4.93;;;1.80;;
71753;SDS011;59593;51.716;7.016;2023-03-11T14:09:20;4.57;;;2.03;;
71753;SDS011;59593;51.716;7.016;2023-03-11T14:11:47;5.57;;;2.70;;
71753;SDS011;59593;51.716;7.016;2023-03-11T14:14:28;4.13;;;2.07;;
71753;SDS011;59593;51.716;7.016;2023-03-11T14:17:05;4.17;;;1.60;;
71753;SDS011;59593;51.716;7.016;2023-03-11T14:19:41;3.90;;;1.20;;
71753;SDS011;59593;51.716;7.016;2023-03-11T14:22:07;3.10;;;1.10;;
71753;SDS011;59593;51.716;7.016;2023-03-11T14:24:34;3.47;;;1.70;;
71753;SDS011;59593;51.716;7.016;2023-03-11T14:27:01;4.97;;;2.40;;
71753;SDS011;59593;51.716;7.016;2023-03-11T14:29:31;3.67;;;1.40;;
71753;SDS011;59593;51.716;7.016;2023-03-11T14:32:15;2.77;;;1.97;;
71753;SDS011;59593;51.716;7.016;2023-03-11T14:34:47;4.67;;;1.50;;
71753;SDS011;59593;51.716;7.016;2023-03-11T14:37:32;6.03;;;2.00;;
71753;SDS011;59593;51.716;7.016;2023-03-11T14:40:00;3.53;;;1.67;;
71753;SDS011;59593;51.716;7.016;2023-03-11T14:47:39;4.00;;;1.00;;
71753;SDS011;59593;51.716;7.016;2023-03-11T14:50:39;3.17;;;0.90;;
71753;SDS011;59593;51.716;7.016;2023-03-11T14:53:07;4.17;;;0.93;;
71753;SDS011;59593;51.716;7.016;2023-03-11T14:55:48;1.53;;;0.70;;
71753;SDS011;59593;51.716;7.016;2023-03-11T14:58:35;4.20;;;0.90;;
71753;SDS011;59593;51.716;7.016;2023-03-11T15:01:16;3.20;;;0.90;;
71753;SDS011;59593;51.716;7.016;2023-03-11T15:04:00;1.83;;;0.80;;
71753;SDS011;59593;51.716;7.016;2023-03-11T15:06:43;4.20;;;1.10;;
71753;SDS011;59593;51.716;7.016;2023-03-11T15:09:13;2.13;;;0.90;;
71753;SDS011;59593;51.716;7.016;2023-03-11T15:11:42;4.63;;;1.00;;
71753;SDS011;59593;51.716;7.016;2023-03-11T15:14:22;3.70;;;0.90;;
71753;SDS011;59593;51.716;7.016;2023-03-11T15:19:53;1.60;;;0.87;;
71753;SDS011;59593;51.716;7.016;2023-03-11T15:24:59;3.50;;;0.80;;
71753;SDS011;59593;51.716;7.016;2023-03-11T15:27:27;4.90;;;1.00;;
71753;SDS011;59593;51.716;7.016;2023-03-11T15:30:29;3.37;;;1.17;;
71753;SDS011;59593;51.716;7.016;2023-03-11T15:33:21;2.83;;;0.80;;
71753;SDS011;59593;51.716;7.016;2023-03-11T15:36:28;2.77;;;1.00;;
71753;SDS011;59593;51.716;7.016;2023-03-11T15:42:22;2.23;;;1.00;;
71753;SDS011;59593;51.716;7.016;2023-03-11T15:45:19;4.87;;;0.90;;
71753;SDS011;59593;51.716;7.016;2023-03-11T15:48:11;3.37;;;1.10;;
71753;SDS011;59593;51.716;7.016;2023-03-11T15:51:02;5.27;;;1.00;;
71753;SDS011;59593;51.716;7.016;2023-03-11T15:53:53;4.27;;;1.37;;
71753;SDS011;59593;51.716;7.016;2023-03-11T15:56:44;3.20;;;1.00;;
71753;SDS011;59593;51.716;7.016;2023-03-11T15:59:36;3.00;;;1.10;;
71753;SDS011;59593;51.716;7.016;2023-03-11T16:02:27;3.87;;;1.00;;
71753;SDS011;59593;51.716;7.016;2023-03-11T16:05:21;2.10;;;0.90;;
71753;SDS011;59593;51.716;7.016;2023-03-11T16:08:13;2.27;;;1.00;;
71753;SDS011;59593;51.716;7.016;2023-03-11T16:11:04;1.90;;;0.80;;
71753;SDS011;59593;51.716;7.016;2023-03-11T16:13:55;5.17;;;1.00;;
71753;SDS011;59593;51.716;7.016;2023-03-11T16:16:46;3.00;;;1.20;;
71753;SDS011;59593;51.716;7.016;2023-03-11T16:19:37;4.53;;;1.00;;
71753;SDS011;59593;51.716;7.016;2023-03-11T16:22:32;2.43;;;0.97;;
71753;SDS011;59593;51.716;7.016;2023-03-11T16:25:35;2.17;;;0.83;;
71753;SDS011;59593;51.716;7.016;2023-03-11T16:28:27;3.20;;;1.10;;
71753;SDS011;59593;51.716;7.016;2023-03-11T16:31:18;3.70;;;1.03;;
71753;SDS011;59593;51.716;7.016;2023-03-11T16:34:09;2.97;;;0.90;;
71753;SDS011;59593;51.716;7.016;2023-03-11T16:37:00;2.77;;;0.97;;
71753;SDS011;59593;51.716;7.016;2023-03-11T16:39:51;3.93;;;1.30;;
71753;SDS011;59593;51.716;7.016;2023-03-11T16:42:42;4.60;;;1.70;;